Time;durP1;ratioP1;P1;durP2;ratioP2;P2;SDS_P1;SDS_P2;PMS_P1;PMS_P2;Temp;Humidity;BMP_temperature;BMP_pressure;BME280_temperature;BME280_humidity;BME280_pressure;Samples;Min_cycle;Max_cycle;Signal;HPM_P1;HPM_P2
2023/06/13 00:02:02;;;;;;;6.85;4.07;;;;;;;20.44;42.01;101243.56;4948904;28;20042;-85
2023/06/13 00:04:30;;;;;;;6.97;4.10;;;;;;;20.40;41.84;101242.16;4948072;29;20043;-85
2023/06/13 00:06:57;;;;;;;6.50;3.78;;;;;;;20.37;41.74;101243.34;4931655;29;20414;-85
2023/06/13 00:09:23;;;;;;;7.13;4.40;;;;;;;20.26;43.04;101240.88;4949178;28;20118;-85
2023/06/13 00:11:52;;;;;;;9.55;4.28;;;;;;;20.21;42.42;101245.19;4951967;28;20118;-85
2023/06/13 00:14:18;;;;;;;7.18;4.30;;;;;;;20.12;42.74;101238.75;4966284;28;20062;-85
2023/06/13 00:16:44;;;;;;;5.90;4.45;;;;;;;20.04;42.78;101235.91;4952206;28;20459;-85
2023/06/13 00:19:11;;;;;;;6.07;4.10;;;;;;;19.95;43.37;101240.53;4952892;28;20049;-84
2023/06/13 00:21:38;;;;;;;7.10;4.53;;;;;;;19.91;43.10;101243.78;4952595;28;20436;-85
2023/06/13 00:24:04;;;;;;;6.97;4.72;;;;;;;19.88;43.35;101244.97;4952303;28;20030;-85
2023/06/13 00:26:29;;;;;;;7.53;4.38;;;;;;;19.77;44.22;101240.59;4951591;28;20047;-85
2023/06/13 00:28:55;;;;;;;6.95;3.95;;;;;;;19.67;43.29;101234.28;4951913;28;20039;-85
2023/06/13 00:31:20;;;;;;;7.63;4.00;;;;;;;19.68;43.50;101240.66;4950935;28;20103;-85
2023/06/13 00:33:50;;;;;;;7.03;4.32;;;;;;;19.62;43.65;101240.28;4951403;28;20082;-85
2023/06/13 00:36:19;;;;;;;6.85;4.47;;;;;;;19.60;44.00;101258.06;4951840;28;20047;-85
2023/06/13 00:38:48;;;;;;;6.18;4.05;;;;;;;19.49;44.21;101242.59;4952150;29;20127;-84
2023/06/13 00:41:14;;;;;;;6.20;4.50;;;;;;;19.44;44.48;101233.03;4966357;28;20189;-85
2023/06/13 00:43:39;;;;;;;8.20;4.38;;;;;;;19.43;44.19;101240.44;4949734;28;20454;-84
2023/06/13 00:46:05;;;;;;;7.10;4.50;;;;;;;19.36;44.14;101240.22;4931635;29;20039;-84
2023/06/13 00:48:32;;;;;;;10.73;4.38;;;;;;;19.32;44.22;101240.69;4933340;29;20165;-85
2023/06/13 00:50:57;;;;;;;7.05;4.38;;;;;;;19.28;44.98;101242.91;4935043;29;20566;-85
2023/06/13 00:53:23;;;;;;;6.15;4.30;;;;;;;19.18;45.37;101241.25;4951996;28;20047;-85
2023/06/13 00:55:50;;;;;;;6.05;4.63;;;;;;;19.04;45.85;101235.25;4952101;28;20513;-85
2023/06/13 00:58:16;;;;;;;6.50;4.75;;;;;;;18.98;46.27;101235.88;4965906;28;20470;-85
2023/06/13 01:00:44;;;;;;;8.45;4.30;;;;;;;18.92;47.18;101238.38;4966299;28;20039;-85
2023/06/13 01:03:15;;;;;;;9.50;4.45;;;;;;;18.84;45.90;101233.66;4934189;29;20117;-84
2023/06/13 01:05:47;;;;;;;10.20;4.97;;;;;;;18.77;46.06;101233.41;4949821;29;20054;-84
2023/06/13 01:08:16;;;;;;;7.53;4.53;;;;;;;18.77;46.23;101232.53;4931464;29;20047;-85
2023/06/13 01:10:45;;;;;;;5.13;4.13;;;;;;;18.72;45.84;101226.63;4932166;29;20491;-84
2023/06/13 01:13:30;;;;;;;7.65;4.28;;;;;;;18.69;45.96;101233.31;4930092;29;20098;-84
2023/06/13 01:16:12;;;;;;;9.02;4.47;;;;;;;18.59;46.23;101221.44;4949286;29;20487;-85
2023/06/13 01:18:43;;;;;;;6.90;5.00;;;;;;;18.58;46.24;101228.84;4952254;28;20135;-85
2023/06/13 01:21:10;;;;;;;9.38;4.22;;;;;;;18.51;46.22;101224.09;4949317;28;20130;-84
2023/06/13 01:23:49;;;;;;;8.73;4.28;;;;;;;18.48;46.54;101230.78;4951791;28;20042;-85
2023/06/13 01:26:48;;;;;;;8.82;4.15;;;;;;;18.41;46.64;101221.38;4950207;28;20514;-84
2023/06/13 01:29:15;;;;;;;6.95;4.78;;;;;;;18.38;46.94;101231.88;4950413;28;20086;-85
2023/06/13 01:31:45;;;;;;;6.97;4.25;;;;;;;18.39;47.09;101234.47;4950986;28;20035;-84
2023/06/13 01:34:10;;;;;;;7.28;4.13;;;;;;;18.32;46.92;101236.94;4950051;29;20027;-85
2023/06/13 01:36:36;;;;;;;7.75;4.82;;;;;;;18.27;47.53;101228.25;4933959;29;20050;-84
2023/06/13 01:39:02;;;;;;;5.82;4.88;;;;;;;18.27;47.56;101233.78;4949669;29;20039;-85
2023/06/13 01:41:28;;;;;;;14.38;5.10;;;;;;;18.22;47.60;101227.00;4948760;29;20138;-85
2023/06/13 01:43:53;;;;;;;5.85;4.53;;;;;;;18.14;47.86;101226.88;4949246;28;20482;-85
2023/06/13 01:46:27;;;;;;;6.88;4.78;;;;;;;18.13;47.65;101236.16;4949618;29;20437;-85
2023/06/13 01:49:16;;;;;;;10.70;4.20;;;;;;;18.07;48.07;101234.88;4949865;29;20089;-84
2023/06/13 01:52:03;;;;;;;7.70;4.55;;;;;;;17.97;48.35;101218.41;4950364;28;20063;-85
2023/06/13 01:54:32;;;;;;;12.73;4.93;;;;;;;17.91;48.88;101212.63;4948935;28;20035;-85
2023/06/13 01:57:02;;;;;;;6.78;4.82;;;;;;;17.89;48.61;101220.16;4948805;29;20506;-85
2023/06/13 01:59:29;;;;;;;7.60;4.47;;;;;;;17.81;48.83;101221.78;4945284;28;20504;-85
2023/06/13 02:01:56;;;;;;;9.95;5.50;;;;;;;17.73;49.26;101218.00;4948672;28;20125;-85
2023/06/13 02:04:22;;;;;;;12.18;5.38;;;;;;;17.65;49.44;101210.47;4949471;29;20113;-85
2023/06/13 02:06:47;;;;;;;11.10;5.07;;;;;;;17.64;49.68;101218.91;4950367;28;20483;-85
2023/06/13 02:09:13;;;;;;;7.53;4.80;;;;;;;17.58;49.69;101217.59;4949925;29;20129;-84
2023/06/13 02:11:39;;;;;;;9.07;4.70;;;;;;;17.56;49.62;101211.38;4948488;29;20051;-84
2023/06/13 02:14:06;;;;;;;11.18;5.13;;;;;;;17.56;49.68;101209.47;4948796;29;20125;-85
2023/06/13 02:16:32;;;;;;;8.20;4.35;;;;;;;17.57;49.84;101224.97;4945410;29;20047;-85
2023/06/13 02:18:59;;;;;;;10.93;5.07;;;;;;;17.52;49.93;101213.53;4930362;29;20039;-85
2023/06/13 02:21:25;;;;;;;10.88;5.00;;;;;;;17.45;50.49;101219.78;4951393;28;20491;-84
2023/06/13 02:23:51;;;;;;;10.02;5.22;;;;;;;17.37;50.06;101223.25;4965093;28;20043;-84
2023/06/13 02:26:16;;;;;;;7.22;4.90;;;;;;;17.32;51.06;101214.59;4931329;29;20097;-83
2023/06/13 02:28:47;;;;;;;8.60;4.78;;;;;;;17.29;50.59;101218.47;4948312;29;20035;-84
2023/06/13 02:31:15;;;;;;;6.43;4.85;;;;;;;17.28;51.05;101219.50;4950006;29;20031;-85
2023/06/13 02:33:41;;;;;;;11.25;5.45;;;;;;;17.21;51.10;101215.63;4950236;28;20134;-85
2023/06/13 02:36:07;;;;;;;7.32;5.32;;;;;;;17.13;52.10;101215.47;4948897;28;20043;-85
2023/06/13 02:38:32;;;;;;;7.43;5.20;;;;;;;17.12;51.88;101216.47;4949142;29;20101;-84
2023/06/13 02:40:59;;;;;;;10.82;5.18;;;;;;;17.07;51.99;101224.31;4964045;28;20035;-84
2023/06/13 02:43:24;;;;;;;8.73;4.95;;;;;;;17.05;51.69;101224.41;4949620;28;20041;-84
2023/06/13 02:45:52;;;;;;;7.13;5.28;;;;;;;17.01;52.05;101225.72;4948500;29;20031;-84
2023/06/13 02:48:17;;;;;;;8.60;5.20;;;;;;;16.92;52.11;101218.31;4933069;29;20146;-84
2023/06/13 02:50:44;;;;;;;6.85;5.97;;;;;;;16.89;53.02;101229.63;4932915;29;20031;-84
2023/06/13 02:53:09;;;;;;;7.40;4.75;;;;;;;16.86;53.21;101229.03;4929424;29;20447;-84
2023/06/13 02:55:36;;;;;;;12.25;5.20;;;;;;;16.79;53.17;101224.13;4938413;29;20407;-84
2023/06/13 02:58:02;;;;;;;8.23;5.18;;;;;;;16.74;52.90;101222.78;4948915;28;20023;-85
2023/06/13 03:00:28;;;;;;;8.68;4.63;;;;;;;16.66;53.99;101225.38;4951599;28;20502;-84
2023/06/13 03:03:04;;;;;;;6.72;4.55;;;;;;;16.64;54.17;101235.59;4939890;29;20059;-84
2023/06/13 03:05:32;;;;;;;9.20;5.35;;;;;;;16.62;54.21;101233.00;4945579;29;20051;-82
2023/06/13 03:07:59;;;;;;;8.32;5.65;;;;;;;16.55;54.58;101224.47;4928488;29;20038;-84
2023/06/13 03:10:25;;;;;;;11.70;5.55;;;;;;;16.49;54.14;101215.91;4947668;29;20038;-85
2023/06/13 03:12:50;;;;;;;9.40;5.45;;;;;;;16.50;52.93;101221.25;4944072;29;20039;-84
2023/06/13 03:15:16;;;;;;;7.95;5.45;;;;;;;16.47;54.32;101221.56;4958132;28;20043;-84
2023/06/13 03:17:42;;;;;;;12.07;6.13;;;;;;;16.41;53.89;101226.72;4948444;29;20129;-83
2023/06/13 03:20:11;;;;;;;6.47;4.80;;;;;;;16.45;54.36;101230.94;4948858;28;20054;-83
2023/06/13 03:22:37;;;;;;;7.03;5.25;;;;;;;16.46;54.22;101233.56;4948120;29;20051;-83
2023/06/13 03:25:03;;;;;;;10.80;5.65;;;;;;;16.41;54.93;101232.22;4948249;28;20496;-84
2023/06/13 03:27:28;;;;;;;9.00;6.15;;;;;;;16.42;55.43;101231.22;4946404;28;20086;-84
2023/06/13 03:29:54;;;;;;;8.07;5.43;;;;;;;16.40;54.58;101227.72;4948207;29;20031;-84
2023/06/13 03:32:20;;;;;;;12.10;6.28;;;;;;;16.35;54.88;101219.91;4928631;29;20024;-83
2023/06/13 03:34:45;;;;;;;11.60;5.57;;;;;;;16.35;55.35;101214.41;4944927;29;20467;-83
2023/06/13 03:37:14;;;;;;;10.32;5.72;;;;;;;16.33;55.66;101225.56;4940216;29;20031;-84
2023/06/13 03:39:39;;;;;;;10.27;6.07;;;;;;;16.38;54.84;101224.28;4964095;28;20035;-83
2023/06/13 03:42:05;;;;;;;8.50;5.60;;;;;;;16.35;54.38;101217.16;4949124;29;20545;-84
2023/06/13 03:44:30;;;;;;;9.48;5.70;;;;;;;16.30;55.29;101217.59;4948712;28;20082;-83
2023/06/13 03:46:57;;;;;;;11.05;5.80;;;;;;;16.32;55.75;101222.97;4951330;28;20058;-83
2023/06/13 03:49:23;;;;;;;8.75;6.00;;;;;;;16.32;54.75;101209.22;4952015;29;20121;-83
2023/06/13 03:51:50;;;;;;;8.93;6.25;;;;;;;16.31;54.38;101215.72;4951188;28;20034;-83
2023/06/13 03:54:16;;;;;;;9.32;6.10;;;;;;;16.37;54.74;101223.41;4967846;28;20403;-84
2023/06/13 03:56:41;;;;;;;7.70;5.90;;;;;;;16.31;56.00;101210.22;4966490;28;20034;-84
2023/06/13 03:59:07;;;;;;;11.02;6.70;;;;;;;16.33;55.82;101216.44;4953006;28;20042;-84
2023/06/13 04:01:32;;;;;;;11.52;6.65;;;;;;;16.32;55.25;101218.34;4952355;28;20034;-84
2023/06/13 04:03:58;;;;;;;10.15;5.78;;;;;;;16.27;56.67;101222.47;4952155;29;20432;-84
2023/06/13 04:06:25;;;;;;;8.30;6.13;;;;;;;16.27;55.41;101219.72;4948151;28;20789;-84
2023/06/13 04:08:51;;;;;;;11.70;6.43;;;;;;;16.31;55.11;101219.31;4944112;29;20483;-83
2023/06/13 04:11:16;;;;;;;10.68;6.38;;;;;;;16.36;54.84;101226.28;4934857;29;20039;-83
2023/06/13 04:13:42;;;;;;;8.05;6.18;;;;;;;16.34;55.42;101226.44;4950968;28;20487;-84
2023/06/13 04:16:07;;;;;;;15.18;6.68;;;;;;;16.39;55.42;101226.00;4951420;28;20047;-83
2023/06/13 04:18:36;;;;;;;12.27;6.30;;;;;;;16.38;55.08;101224.28;4968131;28;20043;-83
2023/06/13 04:21:03;;;;;;;11.68;6.25;;;;;;;16.39;54.62;101226.00;4950664;29;20050;-83
2023/06/13 04:23:29;;;;;;;19.75;6.85;;;;;;;16.32;57.35;101223.81;4952870;28;20406;-83
2023/06/13 04:25:55;;;;;;;14.10;6.30;;;;;;;16.36;56.19;101229.03;4950060;29;20055;-84
2023/06/13 04:28:24;;;;;;;10.77;6.25;;;;;;;16.30;57.57;101228.56;4950598;29;20038;-84
2023/06/13 04:30:51;;;;;;;8.68;6.68;;;;;;;16.30;56.53;101234.06;4958244;28;20031;-83
2023/06/13 04:33:17;;;;;;;11.63;6.75;;;;;;;16.31;57.69;101238.53;4951512;28;20046;-84
2023/06/13 04:35:44;;;;;;;9.02;6.22;;;;;;;16.36;56.76;101235.38;4952476;28;20035;-83
2023/06/13 04:38:21;;;;;;;9.60;6.30;;;;;;;16.37;56.35;101236.25;4931983;29;20051;-82
2023/06/13 04:40:47;;;;;;;9.70;5.80;;;;;;;16.42;57.17;101240.34;4915567;29;20039;-84
2023/06/13 04:43:14;;;;;;;10.27;6.35;;;;;;;16.42;57.66;101239.47;4947120;29;20043;-83
2023/06/13 04:45:43;;;;;;;10.38;6.13;;;;;;;16.52;56.80;101248.59;4952411;28;20042;-84
2023/06/13 04:48:12;;;;;;;14.57;5.90;;;;;;;16.51;57.81;101241.38;4952801;28;20475;-84
2023/06/13 04:50:40;;;;;;;10.65;6.00;;;;;;;16.52;58.98;101235.72;4967069;28;20345;-83
2023/06/13 04:53:11;;;;;;;9.38;6.20;;;;;;;16.60;57.64;101240.53;4966719;28;20039;-84
2023/06/13 04:55:40;;;;;;;8.32;5.90;;;;;;;16.68;57.20;101237.94;4952167;28;20043;-84
2023/06/13 04:58:06;;;;;;;10.18;6.18;;;;;;;16.69;58.57;101234.16;4950404;29;20019;-85
2023/06/13 05:00:32;;;;;;;11.02;5.95;;;;;;;16.73;57.12;101246.66;4933407;29;20321;-84
2023/06/13 05:03:00;;;;;;;10.80;6.30;;;;;;;16.77;57.70;101252.75;4950734;29;20046;-84
2023/06/13 05:05:25;;;;;;;11.68;6.18;;;;;;;16.82;56.70;101247.69;4951498;28;20057;-84
2023/06/13 05:07:55;;;;;;;13.93;7.18;;;;;;;16.91;57.90;101256.97;4949463;28;20130;-85
2023/06/13 05:10:24;;;;;;;9.52;5.90;;;;;;;16.94;56.59;101251.19;4951386;28;20043;-85
2023/06/13 05:12:51;;;;;;;10.18;6.93;;;;;;;16.92;57.34;101254.06;4949243;28;20026;-84
2023/06/13 05:15:18;;;;;;;8.20;6.00;;;;;;;17.02;57.11;101260.47;4957940;28;20057;-85
2023/06/13 05:17:48;;;;;;;11.38;6.10;;;;;;;17.09;56.14;101258.00;4951718;28;20480;-84
2023/06/13 05:20:17;;;;;;;14.93;6.60;;;;;;;17.16;56.35;101258.28;4965944;28;20043;-84
2023/06/13 05:22:42;;;;;;;10.57;6.00;;;;;;;17.19;56.37;101267.13;4965367;28;20148;-84
2023/06/13 05:25:09;;;;;;;11.23;6.38;;;;;;;17.25;56.80;101268.41;4951764;28;20050;-84
2023/06/13 05:27:35;;;;;;;10.13;6.35;;;;;;;17.36;55.05;101256.44;4951150;28;20050;-85
2023/06/13 05:30:01;;;;;;;10.63;5.88;;;;;;;17.41;55.19;101263.22;4949351;29;20035;-84
2023/06/13 05:32:26;;;;;;;8.27;5.97;;;;;;;17.49;53.69;101254.25;4951374;28;20051;-84
2023/06/13 05:34:51;;;;;;;9.57;6.88;;;;;;;17.48;56.04;101255.25;4950274;28;20209;-84
2023/06/13 05:37:17;;;;;;;10.63;6.10;;;;;;;17.54;54.50;101261.06;4949534;29;20070;-84
2023/06/13 05:39:43;;;;;;;10.95;6.68;;;;;;;17.60;54.81;101260.44;4933698;29;20034;-84
2023/06/13 05:42:08;;;;;;;11.65;6.30;;;;;;;17.63;55.99;101253.81;4949635;29;20067;-84
2023/06/13 05:44:34;;;;;;;12.43;6.90;;;;;;;17.72;54.05;101257.53;4930552;29;20580;-84
2023/06/13 05:46:59;;;;;;;9.65;6.35;;;;;;;17.73;55.48;101260.19;4962169;28;20039;-84
2023/06/13 05:49:25;;;;;;;14.95;6.38;;;;;;;17.72;54.86;101258.44;4949980;29;20403;-83
2023/06/13 05:51:51;;;;;;;18.00;7.35;;;;;;;17.76;54.72;101262.63;4949055;29;20035;-84
2023/06/13 05:54:16;;;;;;;13.68;7.28;;;;;;;17.82;54.21;101262.06;4950970;28;20047;-84
2023/06/13 05:56:42;;;;;;;11.88;6.57;;;;;;;17.89;54.18;101262.31;4938312;29;20474;-84
2023/06/13 05:59:07;;;;;;;16.77;7.40;;;;;;;17.94;54.99;101259.13;4935760;29;20065;-84
2023/06/13 06:01:34;;;;;;;9.00;6.88;;;;;;;18.00;54.51;101264.03;4949913;28;20090;-84
2023/06/13 06:03:59;;;;;;;14.27;6.88;;;;;;;18.03;54.63;101263.72;4937581;29;20306;-84
2023/06/13 06:06:25;;;;;;;10.77;6.53;;;;;;;18.05;54.64;101254.31;4962501;28;20483;-84
2023/06/13 06:08:50;;;;;;;10.55;6.70;;;;;;;18.14;53.26;101265.44;4949183;29;20031;-83
2023/06/13 06:11:15;;;;;;;14.02;7.90;;;;;;;18.20;54.17;101270.34;4949867;28;20082;-84
2023/06/13 06:13:41;;;;;;;11.23;6.90;;;;;;;18.24;51.88;101267.16;4931453;29;20044;-84
2023/06/13 06:16:06;;;;;;;11.23;7.18;;;;;;;18.30;53.17;101272.06;4939840;29;20042;-85
2023/06/13 06:18:32;;;;;;;14.80;7.53;;;;;;;18.42;52.24;101272.75;4949519;29;20041;-84
2023/06/13 06:20:57;;;;;;;11.43;7.15;;;;;;;18.47;52.90;101272.28;4948439;28;20073;-84
2023/06/13 06:23:22;;;;;;;14.13;7.03;;;;;;;18.51;52.30;101271.84;4949799;28;20081;-84
2023/06/13 06:25:48;;;;;;;12.30;7.57;;;;;;;18.58;52.68;101275.69;4951252;28;20047;-84
2023/06/13 06:28:13;;;;;;;14.50;6.47;;;;;;;18.64;52.38;101276.09;4932589;29;20699;-84
2023/06/13 06:30:39;;;;;;;10.93;7.03;;;;;;;18.68;52.23;101266.50;4964659;28;20490;-84
2023/06/13 06:33:04;;;;;;;11.40;7.22;;;;;;;18.70;52.40;101268.13;4950804;28;20483;-83
2023/06/13 06:35:29;;;;;;;12.55;7.20;;;;;;;18.75;51.80;101263.03;4965091;28;20456;-84
2023/06/13 06:37:55;;;;;;;10.55;6.63;;;;;;;18.82;52.62;101275.16;4964515;28;20093;-84
2023/06/13 06:40:20;;;;;;;15.90;7.32;;;;;;;18.88;50.72;101268.16;4948608;29;20407;-84
2023/06/13 06:42:46;;;;;;;15.02;7.60;;;;;;;18.98;50.62;101270.84;4949849;28;20173;-84
2023/06/13 06:45:14;;;;;;;11.38;7.50;;;;;;;18.98;52.65;101268.97;4947913;29;20476;-84
2023/06/13 06:47:40;;;;;;;14.55;7.60;;;;;;;19.08;51.10;101271.66;4949737;28;20055;-83
2023/06/13 06:50:06;;;;;;;13.02;7.57;;;;;;;19.08;51.46;101272.53;4950065;28;20118;-84
2023/06/13 06:52:31;;;;;;;15.45;7.78;;;;;;;19.17;51.15;101267.09;4949004;28;20102;-84
2023/06/13 06:54:57;;;;;;;13.43;8.05;;;;;;;19.24;50.39;101270.97;4947773;29;20558;-84
2023/06/13 06:57:22;;;;;;;15.05;7.60;;;;;;;19.24;49.96;101262.69;4947259;28;20032;-84
2023/06/13 06:59:48;;;;;;;13.75;7.95;;;;;;;19.31;51.04;101269.31;4964498;28;20035;-83
2023/06/13 07:02:13;;;;;;;11.48;7.28;;;;;;;19.36;51.21;101273.34;4947930;29;20047;-84
2023/06/13 07:04:38;;;;;;;13.48;7.75;;;;;;;19.41;50.96;101269.22;4950686;29;20078;-84
2023/06/13 07:07:04;;;;;;;10.88;7.78;;;;;;;19.41;51.11;101259.06;4963427;28;20046;-84
2023/06/13 07:09:29;;;;;;;13.15;7.95;;;;;;;19.52;51.02;101268.97;4963947;28;20615;-84
2023/06/13 07:11:57;;;;;;;13.60;7.40;;;;;;;19.55;50.91;101265.91;4948442;28;20035;-85
2023/06/13 07:14:26;;;;;;;11.23;8.20;;;;;;;19.62;50.68;101261.50;4947586;28;20054;-84
2023/06/13 07:16:52;;;;;;;13.80;7.40;;;;;;;19.72;52.69;101272.44;4951222;28;20096;-84
2023/06/13 07:19:18;;;;;;;12.65;7.75;;;;;;;19.74;49.15;101267.66;4963703;28;20146;-85
2023/06/13 07:21:43;;;;;;;10.38;7.22;;;;;;;19.85;50.60;101272.91;4928566;29;20121;-84
2023/06/13 07:24:09;;;;;;;11.70;7.18;;;;;;;19.91;51.03;101269.53;4931225;29;20431;-85
2023/06/13 07:26:35;;;;;;;16.38;7.13;;;;;;;20.01;51.43;101283.22;4929953;29;20047;-84
2023/06/13 07:29:00;;;;;;;9.85;7.13;;;;;;;20.10;52.01;101285.88;4930405;29;20518;-83
2023/06/13 07:31:26;;;;;;;24.83;8.15;;;;;;;20.18;49.65;101274.00;4939893;29;20031;-85
2023/06/13 07:33:51;;;;;;;43.35;9.30;;;;;;;20.25;49.76;101276.97;4948444;28;20101;-84
2023/06/13 07:36:16;;;;;;;15.43;6.95;;;;;;;20.28;50.05;101284.94;4948216;29;20027;-84
2023/06/13 07:38:42;;;;;;;10.73;7.72;;;;;;;20.31;48.04;101279.94;4948474;29;20130;-83
2023/06/13 07:41:10;;;;;;;10.93;6.80;;;;;;;20.32;48.54;101270.63;4949561;29;20078;-85
2023/06/13 07:43:35;;;;;;;15.95;6.53;;;;;;;20.37;49.47;101267.34;4948608;28;20027;-84
2023/06/13 07:46:01;;;;;;;9.52;6.55;;;;;;;20.44;49.13;101268.44;4947476;29;20114;-84
2023/06/13 07:48:26;;;;;;;13.02;6.70;;;;;;;20.47;49.65;101261.72;4949917;29;20051;-85
2023/06/13 07:50:51;;;;;;;9.00;6.75;;;;;;;20.57;48.59;101271.66;4947705;29;20039;-85
2023/06/13 07:53:17;;;;;;;51.92;8.82;;;;;;;20.69;48.08;101274.13;4950040;28;20089;-84
2023/06/13 07:55:46;;;;;;;17.42;7.18;;;;;;;20.79;48.26;101280.38;4948061;29;20031;-84
2023/06/13 07:58:13;;;;;;;12.88;6.75;;;;;;;20.93;46.87;101270.56;4948733;28;20353;-84
2023/06/13 08:00:38;;;;;;;12.50;6.90;;;;;;;21.02;48.22;101269.56;4949426;28;20035;-84
2023/06/13 08:03:04;;;;;;;11.73;6.28;;;;;;;21.17;47.98;101270.66;4964325;28;20039;-84
2023/06/13 08:05:29;;;;;;;11.15;6.53;;;;;;;21.41;48.76;101272.63;4964508;28;20573;-84
2023/06/13 08:07:56;;;;;;;13.98;7.18;;;;;;;21.53;46.12;101265.69;4963864;28;20042;-84
2023/06/13 08:10:22;;;;;;;11.23;6.35;;;;;;;21.97;47.51;101265.34;4948542;28;20039;-83
2023/06/13 08:12:48;;;;;;;15.15;6.15;;;;;;;22.40;46.12;101264.03;4947609;29;20102;-84
2023/06/13 08:15:14;;;;;;;10.30;6.07;;;;;;;22.95;42.78;101272.53;4963566;28;20031;-84
2023/06/13 08:17:41;;;;;;;10.75;6.15;;;;;;;23.28;44.15;101265.72;4947778;29;20037;-84
2023/06/13 08:20:08;;;;;;;13.88;6.82;;;;;;;23.57;41.97;101270.53;4948319;29;20047;-84
2023/06/13 08:22:34;;;;;;;11.05;6.72;;;;;;;24.12;40.85;101263.81;4947719;29;20043;-85
2023/06/13 08:25:00;;;;;;;11.90;6.55;;;;;;;24.53;41.05;101270.84;4932142;29;20046;-85
2023/06/13 08:27:25;;;;;;;11.48;6.03;;;;;;;25.10;40.99;101267.34;4946890;28;20038;-84
2023/06/13 08:29:51;;;;;;;8.93;6.10;;;;;;;25.29;39.92;101263.94;4963599;28;20094;-85
2023/06/13 08:32:16;;;;;;;9.57;6.57;;;;;;;25.51;39.41;101264.81;4951076;28;20141;-84
2023/06/13 08:34:42;;;;;;;9.27;5.72;;;;;;;26.25;37.89;101263.50;4951481;28;20027;-85
2023/06/13 08:37:07;;;;;;;10.45;6.57;;;;;;;26.37;36.96;101261.88;4967330;28;20035;-85
2023/06/13 08:39:33;;;;;;;11.10;6.82;;;;;;;26.47;36.67;101254.03;4951627;29;20035;-84
2023/06/13 08:41:58;;;;;;;9.68;6.45;;;;;;;26.86;35.93;101258.09;4950618;29;20035;-84
2023/06/13 08:44:26;;;;;;;10.45;5.97;;;;;;;27.16;34.19;101253.09;4966232;28;20035;-85
2023/06/13 08:46:51;;;;;;;9.73;6.18;;;;;;;27.05;35.48;101246.16;4950778;28;20031;-84
2023/06/13 08:49:17;;;;;;;12.52;5.50;;;;;;;27.34;35.20;101247.75;4952735;28;20337;-84
2023/06/13 08:51:45;;;;;;;9.95;5.70;;;;;;;27.60;34.48;101249.72;4950765;28;20035;-84
2023/06/13 08:54:12;;;;;;;15.15;6.43;;;;;;;27.73;33.14;101248.06;4950891;29;20447;-84
2023/06/13 08:56:40;;;;;;;10.45;5.88;;;;;;;28.28;34.04;101249.53;4952187;28;20043;-85
2023/06/13 08:59:08;;;;;;;7.32;5.35;;;;;;;28.47;32.06;101245.00;4966425;28;20633;-84
2023/06/13 09:01:37;;;;;;;9.57;5.45;;;;;;;28.67;32.76;101245.78;4957234;28;20037;-85
2023/06/13 09:04:05;;;;;;;12.25;5.32;;;;;;;28.81;31.63;101231.72;4966971;28;20039;-84
2023/06/13 09:06:33;;;;;;;11.70;5.88;;;;;;;28.54;30.58;101233.75;4950441;29;20039;-84
2023/06/13 09:09:00;;;;;;;14.38;6.03;;;;;;;28.50;33.09;101229.72;4952366;28;20487;-84
2023/06/13 09:11:27;;;;;;;14.63;5.97;;;;;;;29.02;31.21;101237.06;4934269;29;20042;-84
2023/06/13 09:13:55;;;;;;;11.68;5.57;;;;;;;29.22;30.87;101240.59;4934093;29;20067;-84
2023/06/13 09:16:21;;;;;;;12.23;6.32;;;;;;;29.06;30.50;101226.25;4949497;28;20126;-84
2023/06/13 09:18:50;;;;;;;10.45;5.05;;;;;;;29.33;31.80;101230.63;4950273;28;20118;-84
2023/06/13 09:21:17;;;;;;;10.65;5.40;;;;;;;29.81;30.78;101232.88;4951673;28;20145;-84
2023/06/13 09:23:42;;;;;;;10.40;6.05;;;;;;;29.83;30.53;101235.44;4966813;28;20174;-84
2023/06/13 09:26:09;;;;;;;13.27;5.85;;;;;;;29.60;31.08;101216.44;4950936;28;20141;-84
2023/06/13 09:28:40;;;;;;;12.98;5.85;;;;;;;29.92;30.86;101231.25;4951310;29;20042;-84
2023/06/13 09:31:07;;;;;;;;;;;;;;;30.18;31.26;101231.06;4964287;28;20027;-85
2023/06/13 09:33:34;;;;;;;9.20;5.70;;;;;;;30.61;29.91;101226.47;4931929;29;19927;-84
2023/06/13 09:36:00;;;;;;;15.77;6.00;;;;;;;30.53;28.71;101226.78;4948165;29;20047;-85
2023/06/13 09:38:26;;;;;;;8.95;5.13;;;;;;;30.29;29.32;101218.19;4950175;28;20520;-84
2023/06/13 09:40:56;;;;;;;12.75;5.43;;;;;;;30.43;30.04;101230.13;4950287;28;20035;-84
2023/06/13 09:43:23;;;;;;;9.70;6.18;;;;;;;30.34;29.14;101220.31;4965618;28;20133;-85
2023/06/13 09:45:50;;;;;;;10.18;5.97;;;;;;;30.22;28.19;101226.69;4933254;29;20045;-85
2023/06/13 09:48:19;;;;;;;12.38;5.50;;;;;;;30.40;28.44;101222.16;4950242;29;20039;-84
2023/06/13 09:50:46;;;;;;;7.32;4.75;;;;;;;30.45;27.96;101227.94;4950608;29;20044;-84
2023/06/13 09:53:11;;;;;;;8.23;5.50;;;;;;;30.67;27.89;101222.72;4949396;29;20041;-83
2023/06/13 09:55:37;;;;;;;13.68;5.47;;;;;;;31.08;30.26;101218.31;4951456;28;20122;-84
2023/06/13 09:58:03;;;;;;;10.20;5.00;;;;;;;31.04;27.14;101219.91;4965498;28;20046;-85
2023/06/13 10:00:29;;;;;;;6.78;4.95;;;;;;;31.39;28.30;101223.72;4949886;28;20047;-84
2023/06/13 10:02:55;;;;;;;9.85;5.60;;;;;;;31.56;26.17;101226.69;4951219;29;20480;-84
2023/06/13 10:05:21;;;;;;;9.07;5.25;;;;;;;31.44;25.33;101217.38;4950329;28;20090;-85
2023/06/13 10:07:47;;;;;;;10.75;5.32;;;;;;;31.43;25.79;101221.28;4949191;29;20049;-84
2023/06/13 10:10:12;;;;;;;8.32;5.20;;;;;;;31.75;26.84;101210.59;4950743;28;20039;-85
2023/06/13 10:12:44;;;;;;;11.30;5.03;;;;;;;31.53;26.39;101213.13;4965050;28;20478;-85
2023/06/13 10:15:13;;;;;;;9.60;5.38;;;;;;;31.27;25.07;101216.31;4949856;29;20402;-84
2023/06/13 10:17:42;;;;;;;9.30;5.25;;;;;;;31.17;26.08;101225.34;4949750;29;20571;-85
2023/06/13 10:20:10;;;;;;;7.80;4.72;;;;;;;31.28;25.15;101215.25;4951529;28;20043;-84
2023/06/13 10:22:39;;;;;;;10.77;4.75;;;;;;;31.11;24.68;101217.84;4950814;28;20054;-84
2023/06/13 10:25:08;;;;;;;8.18;4.72;;;;;;;31.00;25.88;101211.91;4950601;28;20037;-84
2023/06/13 10:27:41;;;;;;;14.48;5.18;;;;;;;30.90;25.51;101211.63;4950123;28;20487;-84
2023/06/13 10:30:27;;;;;;;9.80;5.45;;;;;;;31.09;25.55;101212.44;4949119;28;20122;-84
2023/06/13 10:33:18;;;;;;;11.70;5.13;;;;;;;31.18;24.76;101211.03;4950816;28;20050;-85
2023/06/13 10:36:07;;;;;;;8.50;4.93;;;;;;;31.57;25.17;101221.94;4949641;29;20052;-84
2023/06/13 10:38:54;;;;;;;8.35;5.00;;;;;;;31.55;22.58;101210.91;4949344;29;20466;-84
2023/06/13 10:41:35;;;;;;;6.50;5.00;;;;;;;31.83;24.12;101220.66;4949221;28;20122;-84
2023/06/13 10:44:18;;;;;;;6.55;4.22;;;;;;;32.16;23.17;101211.63;4948749;28;20050;-85
2023/06/13 10:46:44;;;;;;;6.90;5.15;;;;;;;31.88;23.01;101220.78;4949129;29;20050;-84
2023/06/13 10:49:16;;;;;;;5.60;4.47;;;;;;;31.66;24.21;101217.66;4950851;28;20019;-85
2023/06/13 10:51:45;;;;;;;8.02;4.72;;;;;;;31.81;24.75;101215.25;4949682;28;20152;-84
2023/06/13 10:54:12;;;;;;;7.82;4.60;;;;;;;32.03;23.87;101209.03;4950221;28;20039;-84
2023/06/13 10:56:41;;;;;;;7.50;4.60;;;;;;;32.18;23.09;101209.44;4948703;29;20031;-84
2023/06/13 10:59:11;;;;;;;6.40;4.22;;;;;;;31.92;23.22;101206.00;4945354;29;20532;-84
2023/06/13 11:01:39;;;;;;;8.45;4.50;;;;;;;32.14;23.27;101206.25;4946726;28;20047;-84
2023/06/13 11:04:11;;;;;;;8.35;5.22;;;;;;;32.21;22.79;101194.84;4949399;29;20042;-84
2023/06/13 11:06:38;;;;;;;9.65;4.90;;;;;;;32.37;23.74;101205.41;4948710;29;20039;-84
2023/06/13 11:09:25;;;;;;;7.18;4.28;;;;;;;32.57;24.02;101193.72;4964750;28;20355;-84
2023/06/13 11:11:56;;;;;;;6.85;4.50;;;;;;;32.60;23.24;101193.22;4947117;29;20118;-84
2023/06/13 11:14:32;;;;;;;8.38;4.85;;;;;;;32.69;22.77;101191.75;4948232;28;20388;-85
2023/06/13 11:16:57;;;;;;;5.63;4.80;;;;;;;32.78;22.63;101185.69;4949637;28;20051;-84
2023/06/13 11:19:24;;;;;;;14.10;4.43;;;;;;;32.83;21.71;101189.50;4948998;28;20040;-85
2023/06/13 11:22:02;;;;;;;7.68;4.63;;;;;;;32.83;22.01;101197.94;4947597;29;20475;-85
2023/06/13 11:24:30;;;;;;;8.73;4.53;;;;;;;32.82;24.52;101179.28;4949173;28;20047;-84